Time;durP1;ratioP1;P1;durP2;ratioP2;P2;SDS_P1;SDS_P2;PMS_P1;PMS_P2;Temp;Humidity;BMP_temperature;BMP_pressure;BME280_temperature;BME280_humidity;BME280_pressure;Samples;Min_cycle;Max_cycle;Signal;HPM_P1;HPM_P2
2021/09/26 00:00:11;;;;;;;;;;;;;;;;;;5018484;28;19933;-79
2021/09/26 00:02:41;;;;;;;;;;;;;;;;;;5007861;28;19926;-81
2021/09/26 00:05:10;;;;;;;;;;;;;;;;;;5002782;28;19933;-81
2021/09/26 00:07:40;;;;;;;;;;;;;;;;;;5018600;28;19925;-82
2021/09/26 00:10:09;;;;;;;;;;;;;;;;;;5010500;28;19944;-79
2021/09/26 00:12:37;;;;;;;;;;;;;;;;;;5038583;28;19941;-82
2021/09/26 00:15:06;;;;;;;;;;;;;;;;;;5018449;28;19936;-82
2021/09/26 00:17:34;;;;;;;;;;;;;;;;;;5001376;28;19925;-81
2021/09/26 00:20:02;;;;;;;;;;;;;;;;;;4991798;28;19937;-79
2021/09/26 00:22:31;;;;;;;;;;;;;;;;;;5018002;28;19941;-80
2021/09/26 00:25:00;;;;;;;;;;;;;;;;;;5013131;28;20379;-81
2021/09/26 00:27:28;;;;;;;;;;;;;;;;;;4998685;28;20034;-80
2021/09/26 00:30:09;;;;;;;;;;;;;;;;;;4996927;28;19925;-80
2021/09/26 00:32:37;;;;;;;;;;;;;;;;;;5016097;28;22220;-82
2021/09/26 00:35:05;;;;;;;;;;;;;;;;;;5015660;28;19926;-79
2021/09/26 00:37:34;;;;;;;;;;;;;;;;;;5018356;28;19933;-82
2021/09/26 00:40:04;;;;;;;;;;;;;;;;;;5000813;28;20447;-80
2021/09/26 00:42:32;;;;;;;;;;;;;;;;;;5014337;28;19925;-80
2021/09/26 00:45:00;;;;;;;;;;;;;;;;;;4998719;28;19925;-81
2021/09/26 00:47:28;;;;;;;;;;;;;;;;;;5025076;28;19933;-78
2021/09/26 00:49:57;;;;;;;;;;;;;;;;;;5006746;28;19936;-78
2021/09/26 00:52:26;;;;;;;;;;;;;;;;;;4990146;28;19936;-80
2021/09/26 00:54:54;;;;;;;;;;;;;;;;;;5015239;28;20016;-78
2021/09/26 00:57:23;;;;;;;;;;;;;;;;;;5026575;28;19925;-79
2021/09/26 00:59:51;;;;;;;;;;;;;;;;;;5007377;28;19925;-78
2021/09/26 01:02:20;;;;;;;;;;;;;;;;;;5032347;28;20391;-80
2021/09/26 01:04:48;;;;;;;;;;;;;;;;;;5017834;28;19932;-81
2021/09/26 01:07:18;;;;;;;;;;;;;;;;;;5019044;28;19925;-80
2021/09/26 01:09:48;;;;;;;;;;;;;;;;;;5021625;28;20354;-83
2021/09/26 01:12:19;;;;;;;;;;;;;;;;;;5014398;28;19925;-78
2021/09/26 01:14:51;;;;;;;;;;;;;;;;;;5012228;28;20402;-83
2021/09/26 01:17:20;;;;;;;;;;;;;;;;;;5000410;28;19932;-82
2021/09/26 01:19:57;;;;;;;;;;;;;;;;;;5005608;28;19936;-83
2021/09/26 01:22:33;;;;;;;;;;;;;;;;;;5000273;28;19925;-81
2021/09/26 01:25:08;;;;;;;;;;;;;;;;;;5017763;28;19929;-82
2021/09/26 01:27:46;;;;;;;;;;;;;;;;;;4998070;28;19933;-81
2021/09/26 01:30:20;;;;;;;;;;;;;;;;;;4995215;28;19934;-80
2021/09/26 01:32:52;;;;;;;;;;;;;;;;;;5019528;28;20320;-83
2021/09/26 01:35:20;;;;;;;;;;;;;;;;;;5002465;28;20362;-83
2021/09/26 01:37:50;;;;;;;;;;;;;;;;;;5019483;28;19925;-83
2021/09/26 01:40:20;;;;;;;;;;;;;;;;;;5012606;28;19932;-81
2021/09/26 01:42:49;;;;;;;;;;;;;;;;;;5006870;28;19925;-83
2021/09/26 01:45:17;;;;;;;;;;;;;;;;;;4998679;28;19929;-82
2021/09/26 01:47:49;;;;;;;;;;;;;;;;;;5003330;28;19933;-82
2021/09/26 01:50:18;;;;;;;;;;;;;;;;;;5013827;28;19933;-82
2021/09/26 01:52:47;;;;;;;;;;;;;;;;;;4999567;28;19925;-77
2021/09/26 01:55:15;;;;;;;;;;;;;;;;;;5015812;28;19933;-84
2021/09/26 01:57:43;;;;;;;;;;;;;;;;;;5012723;28;19946;-82
2021/09/26 02:00:12;;;;;;;;;;;;;;;;;;5030178;28;20144;-81
2021/09/26 02:02:42;;;;;;;;;;;;;;;;;;5015377;28;19929;-82
2021/09/26 02:05:12;;;;;;;;;;;;;;;;;;4997353;28;20303;-83
2021/09/26 02:07:41;;;;;;;;;;;;;;;;;;5014801;28;20407;-80
2021/09/26 02:10:10;;;;;;;;;;;;;;;;;;4996722;28;19932;-82
2021/09/26 02:12:38;;;;;;;;;;;;;;;;;;5011803;28;19925;-82
2021/09/26 02:15:07;;;;;;;;;;;;;;;;;;4993099;28;19929;-81
2021/09/26 02:17:35;;;;;;;;;;;;;;;;;;4997642;28;19929;-85
2021/09/26 02:20:04;;;;;;;;;;;;;;;;;;5015048;28;19980;-82
2021/09/26 02:22:34;;;;;;;;;;;;;;;;;;5027441;28;20407;-82
2021/09/26 02:25:04;;;;;;;;;;;;;;;;;;5008835;28;20375;-83
2021/09/26 02:27:33;;;;;;;;;;;;;;;;;;5009166;28;19944;-80
2021/09/26 02:30:01;;;;;;;;;;;;;;;;;;5021937;28;19925;-81
2021/09/26 02:32:30;;;;;;;;;;;;;;;;;;5017131;28;20025;-85
2021/09/26 02:34:59;;;;;;;;;;;;;;;;;;5002640;28;19929;-84
2021/09/26 02:37:27;;;;;;;;;;;;;;;;;;5009829;28;19926;-79
2021/09/26 02:39:56;;;;;;;;;;;;;;;;;;5013326;28;19948;-79
2021/09/26 02:42:26;;;;;;;;;;;;;;;;;;4991823;28;20304;-85
2021/09/26 02:44:56;;;;;;;;;;;;;;;;;;5025825;28;20347;-80
2021/09/26 02:47:26;;;;;;;;;;;;;;;;;;5014643;28;19932;-82
2021/09/26 02:49:54;;;;;;;;;;;;;;;;;;5019244;28;19940;-81
2021/09/26 02:52:22;;;;;;;;;;;;;;;;;;5012983;28;19932;-82
2021/09/26 02:54:50;;;;;;;;;;;;;;;;;;4996378;28;19925;-82
2021/09/26 02:57:20;;;;;;;;;;;;;;;;;;4995843;28;20383;-81
2021/09/26 02:59:48;;;;;;;;;;;;;;;;;;5019404;28;19936;-79
2021/09/26 03:02:16;;;;;;;;;;;;;;;;;;5006673;28;20295;-80
2021/09/26 03:04:45;;;;;;;;;;;;;;;;;;5002091;28;19933;-79
2021/09/26 03:07:14;;;;;;;;;;;;;;;;;;5015867;28;19933;-82
2021/09/26 03:09:42;;;;;;;;;;;;;;;;;;5028383;28;19925;-81
2021/09/26 03:12:11;;;;;;;;;;;;;;;;;;5017090;28;19933;-81
2021/09/26 03:14:42;;;;;;;;;;;;;;;;;;5018285;28;19925;-83
2021/09/26 03:17:10;;;;;;;;;;;;;;;;;;5017556;28;20335;-79
2021/09/26 03:19:38;;;;;;;;;;;;;;;;;;5020148;28;19936;-81
2021/09/26 03:22:07;;;;;;;;;;;;;;;;;;5016963;28;19933;-86
2021/09/26 03:24:35;;;;;;;;;;;;;;;;;;5029185;28;19930;-85
2021/09/26 03:27:08;;;;;;;;;;;;;;;;;;5045969;28;19925;-86
2021/09/26 03:29:36;;;;;;;;;;;;;;;;;;5039962;28;20571;-85
2021/09/26 03:32:07;;;;;;;;;;;;;;;;;;5039943;28;19929;-83
2021/09/26 03:34:35;;;;;;;;;;;;;;;;;;5037622;28;19932;-85
2021/09/26 03:37:03;;;;;;;;;;;;;;;;;;5033854;28;19925;-82
2021/09/26 03:39:31;;;;;;;;;;;;;;;;;;5032145;28;19932;-86
2021/09/26 03:42:00;;;;;;;;;;;;;;;;;;5033730;28;20403;-86
2021/09/26 03:44:28;;;;;;;;;;;;;;;;;;5025835;28;19925;-86
2021/09/26 03:46:56;;;;;;;;;;;;;;;;;;5016699;28;19937;-86
2021/09/26 03:49:26;;;;;;;;;;;;;;;;;;5004763;28;20618;-86
2021/09/26 03:51:55;;;;;;;;;;;;;;;;;;5007348;28;19940;-86
2021/09/26 03:54:23;;;;;;;;;;;;;;;;;;5021982;28;20422;-85
2021/09/26 03:56:51;;;;;;;;;;;;;;;;;;5030612;28;19925;-84
2021/09/26 03:59:20;;;;;;;;;;;;;;;;;;5012537;28;19925;-87
2021/09/26 04:01:49;;;;;;;;;;;;;;;;;;5011029;28;19929;-86
2021/09/26 04:04:18;;;;;;;;;;;;;;;;;;5026570;28;19940;-86
2021/09/26 04:06:48;;;;;;;;;;;;;;;;;;5014127;28;20306;-86
2021/09/26 04:09:16;;;;;;;;;;;;;;;;;;5033468;28;19925;-86
2021/09/26 04:11:44;;;;;;;;;;;;;;;;;;5015783;28;20169;-86
2021/09/26 04:14:12;;;;;;;;;;;;;;;;;;5029201;28;19929;-86
2021/09/26 04:16:40;;;;;;;;;;;;;;;;;;5013293;28;19933;-87
2021/09/26 04:19:09;;;;;;;;;;;;;;;;;;5015275;28;19940;-86
2021/09/26 04:21:37;;;;;;;;;;;;;;;;;;5007575;28;19932;-87
2021/09/26 04:24:06;;;;;;;;;;;;;;;;;;5031674;28;19925;-86
2021/09/26 04:26:34;;;;;;;;;;;;;;;;;;5030901;28;19925;-85
2021/09/26 04:29:03;;;;;;;;;;;;;;;;;;5012407;28;19929;-84
2021/09/26 04:31:31;;;;;;;;;;;;;;;;;;5031608;28;19925;-86
2021/09/26 04:33:59;;;;;;;;;;;;;;;;;;5013611;28;19932;-86
2021/09/26 04:36:29;;;;;;;;;;;;;;;;;;5017090;28;19929;-86
2021/09/26 04:38:58;;;;;;;;;;;;;;;;;;5051170;28;20307;-86
2021/09/26 04:41:27;;;;;;;;;;;;;;;;;;5035846;28;20008;-86
2021/09/26 04:43:55;;;;;;;;;;;;;;;;;;5022724;28;20300;-83
2021/09/26 04:46:23;;;;;;;;;;;;;;;;;;5012909;28;20414;-86
2021/09/26 04:48:52;;;;;;;;;;;;;;;;;;5026897;28;20284;-85
2021/09/26 04:51:20;;;;;;;;;;;;;;;;;;5007953;28;19929;-87
2021/09/26 04:53:49;;;;;;;;;;;;;;;;;;5011602;28;19955;-87
2021/09/26 04:56:17;;;;;;;;;;;;;;;;;;5029401;28;19939;-85
2021/09/26 04:58:46;;;;;;;;;;;;;;;;;;5034603;28;19932;-86
2021/09/26 05:01:16;;;;;;;;;;;;;;;;;;5025349;28;19932;-86
2021/09/26 05:03:44;;;;;;;;;;;;;;;;;;5037304;28;20308;-84
2021/09/26 05:06:14;;;;;;;;;;;;;;;;;;5002032;28;20427;-84
2021/09/26 05:08:42;;;;;;;;;;;;;;;;;;5022367;28;19932;-86
2021/09/26 05:11:10;;;;;;;;;;;;;;;;;;5025922;28;20280;-86
2021/09/26 05:13:39;;;;;;;;;;;;;;;;;;5028681;28;19954;-85
2021/09/26 05:16:08;;;;;;;;;;;;;;;;;;5027723;28;19932;-85
2021/09/26 05:18:38;;;;;;;;;;;;;;;;;;5009744;28;19925;-82
2021/09/26 05:21:06;;;;;;;;;;;;;;;;;;5022334;28;19926;-83
2021/09/26 05:23:35;;;;;;;;;;;;;;;;;;5022870;28;19925;-84
2021/09/26 05:26:03;;;;;;;;;;;;;;;;;;5012613;28;19940;-86
2021/09/26 05:28:31;;;;;;;;;;;;;;;;;;5011499;28;19926;-86
2021/09/26 05:31:00;;;;;;;;;;;;;;;;;;5007419;28;19929;-86
2021/09/26 05:33:31;;;;;;;;;;;;;;;;;;5033590;28;20375;-84
2021/09/26 05:35:59;;;;;;;;;;;;;;;;;;5030707;28;20406;-85
2021/09/26 05:38:27;;;;;;;;;;;;;;;;;;5034721;28;20012;-86
2021/09/26 05:40:55;;;;;;;;;;;;;;;;;;5013260;28;19925;-85
2021/09/26 05:43:23;;;;;;;;;;;;;;;;;;5029362;28;19937;-85
2021/09/26 05:45:51;;;;;;;;;;;;;;;;;;5025336;28;19929;-86
2021/09/26 05:48:20;;;;;;;;;;;;;;;;;;5014177;28;19945;-86
2021/09/26 05:50:50;;;;;;;;;;;;;;;;;;5011079;28;19940;-85
2021/09/26 05:53:20;;;;;;;;;;;;;;;;;;5005767;28;19932;-86
2021/09/26 05:55:49;;;;;;;;;;;;;;;;;;5024978;28;19929;-86
2021/09/26 05:58:17;;;;;;;;;;;;;;;;;;5011987;28;19933;-87
2021/09/26 06:00:46;;;;;;;;;;;;;;;;;;5024010;28;19933;-87
2021/09/26 06:03:14;;;;;;;;;;;;;;;;;;5028448;28;19932;-87
2021/09/26 06:05:42;;;;;;;;;;;;;;;;;;5008279;28;20012;-87
2021/09/26 06:08:12;;;;;;;;;;;;;;;;;;5024025;28;20713;-85
2021/09/26 06:10:40;;;;;;;;;;;;;;;;;;5027041;28;20383;-85
2021/09/26 06:13:09;;;;;;;;;;;;;;;;;;5029976;28;20303;-86
2021/09/26 06:15:37;;;;;;;;;;;;;;;;;;5015006;28;19925;-87
2021/09/26 06:18:06;;;;;;;;;;;;;;;;;;5029679;28;19925;-86
2021/09/26 06:20:34;;;;;;;;;;;;;;;;;;5025306;28;19947;-87
2021/09/26 06:23:02;;;;;;;;;;;;;;;;;;5012057;28;20403;-86
2021/09/26 06:25:32;;;;;;;;;;;;;;;;;;5022743;28;19934;-86
2021/09/26 06:28:00;;;;;;;;;;;;;;;;;;5017072;28;19956;-87
2021/09/26 06:30:28;;;;;;;;;;;;;;;;;;5021788;28;19933;-85
2021/09/26 06:32:56;;;;;;;;;;;;;;;;;;5028986;28;19924;-89
2021/09/26 06:35:26;;;;;;;;;;;;;;;;;;5025968;28;20899;-85
2021/09/26 06:38:06;;;;;;;;;;;;;;;;;;5008939;28;19940;-82
2021/09/26 06:40:36;;;;;;;;;;;;;;;;;;5030011;28;19925;-82
2021/09/26 06:43:04;;;;;;;;;;;;;;;;;;5028047;28;19932;-83
2021/09/26 06:45:33;;;;;;;;;;;;;;;;;;5002160;28;19925;-86
2021/09/26 06:48:02;;;;;;;;;;;;;;;;;;5037407;28;19944;-85
2021/09/26 06:50:30;;;;;;;;;;;;;;;;;;5032307;28;19947;-83
2021/09/26 06:53:02;;;;;;;;;;;;;;;;;;5020250;28;19925;-86
2021/09/26 06:55:32;;;;;;;;;;;;;;;;;;5013053;28;19933;-87
2021/09/26 06:58:02;;;;;;;;;;;;;;;;;;5026532;28;19925;-85
2021/09/26 07:00:30;;;;;;;;;;;;;;;;;;5033349;28;19929;-87
2021/09/26 07:02:59;;;;;;;;;;;;;;;;;;5007592;28;19940;-88
2021/09/26 07:05:28;;;;;;;;;;;;;;;;;;5015515;28;19925;-82
2021/09/26 07:11:31;;;;;;;;;;;;;;;;;;5029099;28;20642;-86
2021/09/26 07:14:02;;;;;;;;;;;;;;;;;;5040319;28;19929;-90
2021/09/26 07:16:30;;;;;;;;;;;;;;;;;;5026273;28;19931;-87
2021/09/26 07:19:21;;;;;;;;;;;;;;;;;;5013379;28;19925;-89
2021/09/26 07:22:32;;;;;;;;;;;;;;;;;;4977191;28;19929;-88
2021/09/26 07:25:10;;;;;;;;;;;;;;;;;;5029082;28;19929;-88
2021/09/26 07:27:39;;;;;;;;;;;;;;;;;;5016319;28;19929;-87
2021/09/26 07:30:10;;;;;;;;;;;;;;;;;;5025494;28;19929;-89
2021/09/26 07:32:38;;;;;;;;;;;;;;;;;;5022191;28;19925;-89
2021/09/26 07:35:07;;;;;;;;;;;;;;;;;;5014978;28;19925;-87
2021/09/26 07:37:35;;;;;;;;;;;;;;;;;;5021934;28;20315;-88
2021/09/26 07:40:04;;;;;;;;;;;;;;;;;;5007758;28;20313;-86
2021/09/26 07:42:33;;;;;;;;;;;;;;;;;;5021400;28;19929;-86
2021/09/26 07:45:03;;;;;;;;;;;;;;;;;;5008690;28;19925;-87
2021/09/26 07:47:33;;;;;;;;;;;;;;;;;;5009148;28;19936;-88
2021/09/26 07:50:01;;;;;;;;;;;;;;;;;;5010153;28;19925;-88
2021/09/26 07:52:30;;;;;;;;;;;;;;;;;;5019168;28;19950;-89
2021/09/26 07:54:58;;;;;;;;;;;;;;;;;;5004075;28;19932;-90
2021/09/26 07:57:27;;;;;;;;;;;;;;;;;;5022221;28;19932;-88
2021/09/26 07:59:55;;;;;;;;;;;;;;;;;;5010951;28;19933;-88
2021/09/26 08:02:24;;;;;;;;;;;;;;;;;;5014999;28;19924;-87
2021/09/26 08:04:58;;;;;;;;;;;;;;;;;;5003212;28;19929;-88
2021/09/26 08:07:29;;;;;;;;;;;;;;;;;;5002046;28;19925;-88
2021/09/26 08:10:00;;;;;;;;;;;;;;;;;;5003164;28;19948;-87
2021/09/26 08:12:28;;;;;;;;;;;;;;;;;;5026055;28;19926;-88
2021/09/26 08:14:58;;;;;;;;;;;;;;;;;;5011964;28;19925;-87
2021/09/26 08:17:28;;;;;;;;;;;;;;;;;;5006318;28;19936;-87
2021/09/26 08:20:00;;;;;;;;;;;;;;;;;;5024121;28;20319;-86
2021/09/26 08:22:29;;;;;;;;;;;;;;;;;;5007370;28;19925;-87
2021/09/26 08:25:03;;;;;;;;;;;;;;;;;;5007983;28;19933;-88
2021/09/26 08:27:47;;;;;;;;;;;;;;;;;;5007198;28;19997;-87
2021/09/26 08:30:20;;;;;;;;;;;;;;;;;;5030923;28;19925;-86
2021/09/26 08:32:49;;;;;;;;;;;;;;;;;;5019387;28;19925;-89
2021/09/26 08:35:19;;;;;;;;;;;;;;;;;;5007195;28;19939;-89
2021/09/26 08:37:52;;;;;;;;;;;;;;;;;;5007380;28;19940;-88
2021/09/26 08:40:24;;;;;;;;;;;;;;;;;;5002580;28;19936;-87
2021/09/26 08:42:53;;;;;;;;;;;;;;;;;;5027179;28;20299;-88
2021/09/26 08:45:22;;;;;;;;;;;;;;;;;;5007765;28;20383;-88
2021/09/26 08:47:51;;;;;;;;;;;;;;;;;;5013967;28;19925;-86
2021/09/26 08:50:23;;;;;;;;;;;;;;;;;;5009549;28;19933;-87
2021/09/26 08:52:52;;;;;;;;;;;;;;;;;;5019840;28;19947;-87
2021/09/26 08:55:23;;;;;;;;;;;;;;;;;;5017682;28;20078;-87
2021/09/26 08:58:03;;;;;;;;;;;;;;;;;;5015179;28;19933;-88
2021/09/26 09:00:37;;;;;;;;;;;;;;;;;;4997403;28;19933;-88
2021/09/26 09:03:10;;;;;;;;;;;;;;;;;;5007246;28;19940;-89
2021/09/26 09:05:41;;;;;;;;;;;;;;;;;;5013218;28;19933;-89
2021/09/26 09:08:10;;;;;;;;;;;;;;;;;;5007326;28;20203;-88
2021/09/26 09:10:44;;;;;;;;;;;;;;;;;;5012167;28;19926;-87
2021/09/26 09:13:13;;;;;;;;;;;;;;;;;;5022917;28;19933;-89
2021/09/26 09:15:43;;;;;;;;;;;;;;;;;;5018825;28;19948;-88
2021/09/26 09:18:12;;;;;;;;;;;;;;;;;;5019756;28;19925;-88
2021/09/26 09:20:48;;;;;;;;;;;;;;;;;;5016118;28;19929;-88
2021/09/26 09:23:19;;;;;;;;;;;;;;;;;;5016620;28;19933;-88
2021/09/26 09:25:52;;;;;;;;;;;;;;;;;;5011127;28;19945;-89
2021/09/26 09:28:22;;;;;;;;;;;;;;;;;;5011327;28;19926;-88
2021/09/26 09:30:56;;;;;;;;;;;;;;;;;;5015115;28;19925;-89
2021/09/26 09:33:25;;;;;;;;;;;;;;;;;;5008610;28;19936;-89
2021/09/26 09:35:56;;;;;;;;;;;;;;;;;;5011701;28;19925;-88
2021/09/26 09:38:34;;;;;;;;;;;;;;;;;;5007518;28;19940;-89
2021/09/26 09:41:04;;;;;;;;;;;;;;;;;;5000125;28;19936;-87
2021/09/26 09:43:34;;;;;;;;;;;;;;;;;;5009990;28;19932;-87
2021/09/26 09:46:04;;;;;;;;;;;;;;;;;;5011068;28;19925;-89
2021/09/26 09:48:33;;;;;;;;;;;;;;;;;;5016706;28;19932;-88
2021/09/26 09:51:13;;;;;;;;;;;;;;;;;;5010277;28;19932;-89
2021/09/26 09:53:49;;;;;;;;;;;;;;;;;;5005081;28;20292;-88
2021/09/26 10:01:33;;;;;;;;;;;;;;;;;;5021251;28;19932;-88
2021/09/26 10:04:25;;;;;;;;;;;;;;;;;;5018981;28;19925;-88
2021/09/26 10:07:57;;;;;;;;;;;;;;;;;;5025046;28;19932;-88
2021/09/26 10:10:58;;;;;;;;;;;;;;;;;;5024615;28;19935;-87
2021/09/26 10:17:42;;;;;;;;;;;;;;;;;;4998241;28;19936;-88
2021/09/26 10:20:18;;;;;;;;;;;;;;;;;;5015228;28;19925;-84
2021/09/26 10:22:48;;;;;;;;;;;;;;;;;;4987060;28;20615;-88
2021/09/26 10:25:17;;;;;;;;;;;;;;;;;;5000088;28;19933;-87
2021/09/26 10:27:45;;;;;;;;;;;;;;;;;;5008018;28;20423;-87
2021/09/26 10:30:14;;;;;;;;;;;;;;;;;;4993976;28;19929;-84
2021/09/26 10:32:42;;;;;;;;;;;;;;;;;;4985711;28;19926;-85
2021/09/26 10:35:11;;;;;;;;;;;;;;;;;;4992583;28;19967;-84
2021/09/26 10:37:40;;;;;;;;;;;;;;;;;;4997144;28;19941;-84
2021/09/26 10:40:11;;;;;;;;;;;;;;;;;;5014031;28;20425;-88
2021/09/26 10:42:40;;;;;;;;;;;;;;;;;;5005207;28;20281;-87
2021/09/26 10:45:10;;;;;;;;;;;;;;;;;;5009526;28;19926;-87
2021/09/26 10:47:39;;;;;;;;;;;;;;;;;;5008138;28;19925;-87
2021/09/26 10:50:12;;;;;;;;;;;;;;;;;;4999223;28;19936;-87
2021/09/26 10:52:44;;;;;;;;;;;;;;;;;;5007719;28;19925;-84
2021/09/26 10:55:33;;;;;;;;;;;;;;;;;;5024939;28;19925;-86
2021/09/26 10:58:21;;;;;;;;;;;;;;;;;;5006294;28;20229;-87
2021/09/26 11:00:54;;;;;;;;;;;;;;;;;;5010599;28;19925;-87
2021/09/26 11:03:38;;;;;;;;;;;;;;;;;;5006503;28;20395;-88
2021/09/26 11:06:23;;;;;;;;;;;;;;;;;;5021637;28;20189;-86
2021/09/26 11:08:52;;;;;;;;;;;;;;;;;;5005361;28;20430;-86
2021/09/26 11:11:34;;;;;;;;;;;;;;;;;;5002517;28;20414;-86
2021/09/26 11:14:13;;;;;;;;;;;;;;;;;;5014999;28;19932;-87
2021/09/26 11:16:50;;;;;;;;;;;;;;;;;;5004819;28;20953;-86
2021/09/26 11:19:18;;;;;;;;;;;;;;;;;;5025486;28;19933;-87
2021/09/26 11:21:51;;;;;;;;;;;;;;;;;;5004677;28;19925;-85
2021/09/26 11:24:40;;;;;;;;;;;;;;;;;;5005468;28;19934;-86
2021/09/26 11:27:13;;;;;;;;;;;;;;;;;;4989532;28;19925;-86
2021/09/26 11:30:00;;;;;;;;;;;;;;;;;;5024764;28;19940;-87
2021/09/26 11:32:31;;;;;;;;;;;;;;;;;;5009331;28;20171;-84
2021/09/26 11:35:00;;;;;;;;;;;;;;;;;;5013359;28;19929;-86
2021/09/26 11:37:58;;;;;;;;;;;;;;;;;;5011257;28;19929;-87
2021/09/26 11:40:50;;;;;;;;;;;;;;;;;;4992841;28;20441;-84
2021/09/26 11:43:20;;;;;;;;;;;;;;;;;;5015311;28;19926;-88
2021/09/26 11:45:48;;;;;;;;;;;;;;;;;;4997737;28;20208;-87
2021/09/26 11:48:18;;;;;;;;;;;;;;;;;;5030922;28;19937;-87
2021/09/26 11:50:47;;;;;;;;;;;;;;;;;;5005197;28;19933;-85
2021/09/26 11:53:16;;;;;;;;;;;;;;;;;;5029468;28;19925;-85
2021/09/26 11:55:44;;;;;;;;;;;;;;;;;;5010936;28;19940;-87
2021/09/26 11:58:13;;;;;;;;;;;;;;;;;;5004380;28;19925;-86
2021/09/26 12:00:42;;;;;;;;;;;;;;;;;;5026647;28;20029;-87
2021/09/26 12:03:14;;;;;;;;;;;;;;;;;;5006717;28;19932;-86
2021/09/26 12:05:44;;;;;;;;;;;;;;;;;;5014216;28;19929;-91
2021/09/26 12:08:12;;;;;;;;;;;;;;;;;;5011809;28;19925;-88
2021/09/26 12:10:43;;;;;;;;;;;;;;;;;;5036343;28;19932;-88
2021/09/26 12:13:16;;;;;;;;;;;;;;;;;;5052408;28;19929;-88
2021/09/26 12:15:45;;;;;;;;;;;;;;;;;;5018924;28;20334;-86
2021/09/26 12:18:20;;;;;;;;;;;;;;;;;;5019941;28;19941;-86
2021/09/26 12:20:50;;;;;;;;;;;;;;;;;;5026360;28;19951;-89
2021/09/26 12:23:19;;;;;;;;;;;;;;;;;;5008779;28;19944;-87
2021/09/26 12:25:59;;;;;;;;;;;;;;;;;;5029812;28;19948;-88
2021/09/26 12:28:27;;;;;;;;;;;;;;;;;;5010749;28;19929;-87
2021/09/26 12:30:56;;;;;;;;;;;;;;;;;;5011798;28;19932;-89
2021/09/26 12:33:26;;;;;;;;;;;;;;;;;;5004615;28;19931;-88
2021/09/26 12:35:55;;;;;;;;;;;;;;;;;;5027891;28;19925;-88
2021/09/26 12:38:25;;;;;;;;;;;;;;;;;;5012561;28;19925;-87
2021/09/26 12:40:56;;;;;;;;;;;;;;;;;;5014093;28;19933;-84
2021/09/26 12:43:25;;;;;;;;;;;;;;;;;;5020391;28;20280;-88
2021/09/26 12:45:53;;;;;;;;;;;;;;;;;;5006067;28;20415;-85
2021/09/26 12:48:22;;;;;;;;;;;;;;;;;;5010497;28;19936;-86
2021/09/26 12:50:51;;;;;;;;;;;;;;;;;;5018420;28;19925;-88
2021/09/26 12:53:20;;;;;;;;;;;;;;;;;;4998902;28;19933;-87
2021/09/26 12:55:50;;;;;;;;;;;;;;;;;;5028797;28;19925;-89
2021/09/26 12:58:22;;;;;;;;;;;;;;;;;;5011402;28;19932;-86
2021/09/26 13:00:50;;;;;;;;;;;;;;;;;;5027014;28;20655;-86
2021/09/26 13:03:20;;;;;;;;;;;;;;;;;;5030765;28;19929;-85
2021/09/26 13:05:55;;;;;;;;;;;;;;;;;;5021016;28;20307;-82
2021/09/26 13:08:31;;;;;;;;;;;;;;;;;;5012522;28;20035;-86
2021/09/26 13:11:00;;;;;;;;;;;;;;;;;;5012926;28;19940;-83
2021/09/26 13:13:31;;;;;;;;;;;;;;;;;;5016972;28;19944;-85
2021/09/26 13:16:14;;;;;;;;;;;;;;;;;;5018956;28;20322;-83
2021/09/26 13:18:43;;;;;;;;;;;;;;;;;;5013577;28;19932;-87
2021/09/26 13:21:13;;;;;;;;;;;;;;;;;;5014838;28;19953;-85
2021/09/26 13:23:41;;;;;;;;;;;;;;;;;;5032014;28;19934;-85
2021/09/26 13:26:11;;;;;;;;;;;;;;;;;;5023678;28;19929;-83
2021/09/26 13:28:49;;;;;;;;;;;;;;;;;;5011983;28;19929;-84
2021/09/26 13:31:20;;;;;;;;;;;;;;;;;;5010888;28;19940;-86
2021/09/26 13:33:54;;;;;;;;;;;;;;;;;;5010750;28;20319;-85
2021/09/26 13:36:31;;;;;;;;;;;;;;;;;;5010698;28;19940;-82
2021/09/26 13:39:01;;;;;;;;;;;;;;;;;;5013662;28;19933;-83
2021/09/26 13:41:34;;;;;;;;;;;;;;;;;;5014950;28;19929;-83
2021/09/26 13:44:05;;;;;;;;;;;;;;;;;;5017795;28;19932;-82
2021/09/26 13:46:33;;;;;;;;;;;;;;;;;;5022125;28;19940;-84
2021/09/26 13:49:02;;;;;;;;;;;;;;;;;;5013949;28;19926;-83
2021/09/26 13:51:30;;;;;;;;;;;;;;;;;;5023098;28;19933;-83
2021/09/26 13:53:58;;;;;;;;;;;;;;;;;;5013145;28;19948;-83
2021/09/26 13:56:27;;;;;;;;;;;;;;;;;;5017486;28;19933;-82
2021/09/26 13:58:55;;;;;;;;;;;;;;;;;;5031508;28;19929;-82
2021/09/26 14:01:25;;;;;;;;;;;;;;;;;;5008694;28;19928;-82
2021/09/26 14:03:53;;;;;;;;;;;;;;;;;;5005820;28;19933;-82
2021/09/26 14:06:23;;;;;;;;;;;;;;;;;;5016381;28;19997;-84
2021/09/26 14:08:53;;;;;;;;;;;;;;;;;;5014259;28;19932;-83
2021/09/26 14:11:22;;;;;;;;;;;;;;;;;;5008836;28;19925;-82
2021/09/26 14:13:51;;;;;;;;;;;;;;;;;;5028346;28;19936;-83
2021/09/26 14:16:19;;;;;;;;;;;;;;;;;;5007013;28;20417;-82
2021/09/26 14:18:49;;;;;;;;;;;;;;;;;;5020608;28;19935;-82
2021/09/26 14:21:19;;;;;;;;;;;;;;;;;;5015640;28;19925;-82
2021/09/26 14:23:48;;;;;;;;;;;;;;;;;;5031178;28;20299;-83
2021/09/26 14:26:16;;;;;;;;;;;;;;;;;;5017036;28;19929;-83
2021/09/26 14:28:44;;;;;;;;;;;;;;;;;;5015300;28;19925;-84
2021/09/26 14:31:13;;;;;;;;;;;;;;;;;;5018820;28;19932;-84
2021/09/26 14:33:43;;;;;;;;;;;;;;;;;;5029329;28;19936;-84
2021/09/26 14:39:49;;;;;;;;;;;;;;;;;;5062953;28;19926;-84
2021/09/26 14:42:17;;;;;;;;;;;;;;;;;;5028130;28;20386;-84
2021/09/26 14:44:45;;;;;;;;;;;;;;;;;;5012415;28;20012;-84
2021/09/26 14:47:16;;;;;;;;;;;;;;;;;;5026759;28;19929;-84
2021/09/26 14:49:44;;;;;;;;;;;;;;;;;;5031012;28;19925;-84
2021/09/26 14:52:16;;;;;;;;;;;;;;;;;;5031129;28;19932;-84
2021/09/26 14:54:44;;;;;;;;;;;;;;;;;;5014295;28;19929;-84
2021/09/26 14:57:14;;;;;;;;;;;;;;;;;;5011285;28;20023;-85
2021/09/26 14:59:42;;;;;;;;;;;;;;;;;;5025943;28;19940;-85
2021/09/26 15:02:10;;;;;;;;;;;;;;;;;;5028343;28;19933;-84
2021/09/26 15:04:39;;;;;;;;;;;;;;;;;;5010302;28;19932;-84
2021/09/26 15:07:07;;;;;;;;;;;;;;;;;;5044484;28;19929;-85
2021/09/26 15:09:35;;;;;;;;;;;;;;;;;;5011385;28;20291;-84
2021/09/26 15:12:04;;;;;;;;;;;;;;;;;;5030261;28;19936;-85
2021/09/26 15:14:33;;;;;;;;;;;;;;;;;;5013226;28;19929;-85
2021/09/26 15:17:01;;;;;;;;;;;;;;;;;;5007986;28;20291;-86
2021/09/26 15:19:30;;;;;;;;;;;;;;;;;;5014734;28;19925;-86
2021/09/26 15:21:58;;;;;;;;;;;;;;;;;;5030876;28;19932;-85
2021/09/26 15:24:27;;;;;;;;;;;;;;;;;;5029046;28;19932;-86
2021/09/26 15:26:55;;;;;;;;;;;;;;;;;;5015929;28;19925;-83
2021/09/26 15:29:23;;;;;;;;;;;;;;;;;;5041280;28;19933;-84
2021/09/26 15:31:53;;;;;;;;;;;;;;;;;;5038115;28;19929;-86
2021/09/26 15:34:21;;;;;;;;;;;;;;;;;;5027485;28;19929;-84
2021/09/26 15:36:49;;;;;;;;;;;;;;;;;;5035312;28;19932;-84
2021/09/26 15:39:18;;;;;;;;;;;;;;;;;;5016527;28;19930;-82
2021/09/26 15:41:47;;;;;;;;;;;;;;;;;;5035999;28;20822;-82
2021/09/26 15:44:15;;;;;;;;;;;;;;;;;;5013986;28;19933;-84
2021/09/26 15:46:43;;;;;;;;;;;;;;;;;;5028315;28;19932;-85
2021/09/26 15:49:13;;;;;;;;;;;;;;;;;;5014730;28;19936;-85
2021/09/26 15:51:41;;;;;;;;;;;;;;;;;;5000485;28;19933;-85
2021/09/26 15:54:10;;;;;;;;;;;;;;;;;;5011028;28;19933;-84
2021/09/26 15:56:38;;;;;;;;;;;;;;;;;;5011478;28;20323;-85
2021/09/26 15:59:07;;;;;;;;;;;;;;;;;;5010051;28;19933;-86
2021/09/26 16:01:35;;;;;;;;;;;;;;;;;;5021316;28;20194;-84
2021/09/26 16:04:04;;;;;;;;;;;;;;;;;;5027419;28;19997;-85
2021/09/26 16:06:33;;;;;;;;;;;;;;;;;;5012364;28;19958;-83
2021/09/26 16:09:02;;;;;;;;;;;;;;;;;;5017544;28;19929;-86
2021/09/26 16:11:30;;;;;;;;;;;;;;;;;;5026211;28;19925;-84
2021/09/26 16:13:58;;;;;;;;;;;;;;;;;;5017077;28;19932;-83
2021/09/26 16:16:27;;;;;;;;;;;;;;;;;;5010291;28;19925;-83
2021/09/26 16:18:55;;;;;;;;;;;;;;;;;;5012684;28;20402;-84
2021/09/26 16:21:23;;;;;;;;;;;;;;;;;;5032435;28;20366;-81
2021/09/26 16:23:53;;;;;;;;;;;;;;;;;;5010451;28;19934;-84
2021/09/26 16:26:24;;;;;;;;;;;;;;;;;;5004720;28;19932;-83
2021/09/26 16:28:54;;;;;;;;;;;;;;;;;;5011637;28;19926;-85
2021/09/26 16:31:23;;;;;;;;;;;;;;;;;;5005111;28;19936;-84
2021/09/26 16:33:51;;;;;;;;;;;;;;;;;;5035813;28;19925;-84
2021/09/26 16:36:19;;;;;;;;;;;;;;;;;;5016612;28;20329;-83
2021/09/26 16:38:48;;;;;;;;;;;;;;;;;;5029190;28;19925;-85
2021/09/26 16:41:18;;;;;;;;;;;;;;;;;;5008896;28;19926;-84
2021/09/26 16:43:48;;;;;;;;;;;;;;;;;;5030381;28;19948;-86
2021/09/26 16:46:16;;;;;;;;;;;;;;;;;;5013960;28;19925;-85
2021/09/26 16:48:44;;;;;;;;;;;;;;;;;;5031163;28;19925;-84
2021/09/26 16:51:14;;;;;;;;;;;;;;;;;;5007339;28;20414;-82
2021/09/26 16:53:42;;;;;;;;;;;;;;;;;;5010501;28;19944;-85
2021/09/26 16:56:11;;;;;;;;;;;;;;;;;;5002383;28;19936;-85
2021/09/26 16:58:40;;;;;;;;;;;;;;;;;;5003261;28;19925;-85
2021/09/26 17:01:08;;;;;;;;;;;;;;;;;;5015590;28;19924;-84
2021/09/26 17:03:37;;;;;;;;;;;;;;;;;;5044363;28;19929;-84
2021/09/26 17:06:06;;;;;;;;;;;;;;;;;;5006599;28;20409;-84
2021/09/26 17:08:35;;;;;;;;;;;;;;;;;;5011703;28;19933;-84
2021/09/26 17:11:05;;;;;;;;;;;;;;;;;;5017553;28;19925;-84
2021/09/26 17:13:33;;;;;;;;;;;;;;;;;;5013265;28;20314;-85
2021/09/26 17:16:03;;;;;;;;;;;;;;;;;;4998409;28;19939;-85
2021/09/26 17:18:31;;;;;;;;;;;;;;;;;;4988679;28;19936;-85
2021/09/26 17:21:00;;;;;;;;;;;;;;;;;;5009011;28;19929;-85
2021/09/26 17:23:28;;;;;;;;;;;;;;;;;;5000037;28;19936;-85